sensor_id;sensor_type;location;lat;lon;timestamp;P1;durP1;ratioP1;P2;durP2;ratioP2
7031;SDS011;3557;48.880;8.328;2023-09-19T00:00:45;1.98;;;1.60;;
7031;SDS011;3557;48.880;8.328;2023-09-19T00:03:13;2.83;;;1.30;;
7031;SDS011;3557;48.880;8.328;2023-09-19T00:05:42;2.13;;;1.40;;
7031;SDS011;3557;48.880;8.328;2023-09-19T00:08:10;2.42;;;1.48;;
7031;SDS011;3557;48.880;8.328;2023-09-19T00:10:39;1.23;;;1.10;;
7031;SDS011;3557;48.880;8.328;2023-09-19T00:13:07;1.30;;;1.20;;
7031;SDS011;3557;48.880;8.328;2023-09-19T00:15:38;1.33;;;1.20;;
7031;SDS011;3557;48.880;8.328;2023-09-19T00:18:07;2.55;;;1.33;;
7031;SDS011;3557;48.880;8.328;2023-09-19T00:20:35;3.08;;;1.10;;
7031;SDS011;3557;48.880;8.328;2023-09-19T00:23:05;3.75;;;1.38;;
7031;SDS011;3557;48.880;8.328;2023-09-19T00:25:33;2.17;;;1.20;;
7031;SDS011;3557;48.880;8.328;2023-09-19T00:28:02;1.40;;;1.20;;
7031;SDS011;3557;48.880;8.328;2023-09-19T00:30:31;1.95;;;1.30;;
7031;SDS011;3557;48.880;8.328;2023-09-19T00:32:59;3.33;;;1.20;;
7031;SDS011;3557;48.880;8.328;2023-09-19T00:35:30;1.75;;;1.08;;
7031;SDS011;3557;48.880;8.328;2023-09-19T00:37:58;1.90;;;1.30;;
7031;SDS011;3557;48.880;8.328;2023-09-19T00:40:27;1.30;;;1.20;;
7031;SDS011;3557;48.880;8.328;2023-09-19T00:42:56;1.30;;;1.20;;
7031;SDS011;3557;48.880;8.328;2023-09-19T00:45:26;2.92;;;1.33;;
7031;SDS011;3557;48.880;8.328;2023-09-19T00:47:54;1.20;;;1.10;;
7031;SDS011;3557;48.880;8.328;2023-09-19T00:50:22;3.55;;;1.13;;
7031;SDS011;3557;48.880;8.328;2023-09-19T00:52:53;1.10;;;1.10;;
7031;SDS011;3557;48.880;8.328;2023-09-19T00:55:22;2.15;;;1.30;;
7031;SDS011;3557;48.880;8.328;2023-09-19T00:57:52;1.58;;;1.13;;
7031;SDS011;3557;48.880;8.328;2023-09-19T01:00:20;2.33;;;1.10;;
7031;SDS011;3557;48.880;8.328;2023-09-19T01:02:49;2.55;;;1.20;;
7031;SDS011;3557;48.880;8.328;2023-09-19T01:05:16;1.45;;;1.10;;
7031;SDS011;3557;48.880;8.328;2023-09-19T01:07:44;1.35;;;1.00;;
7031;SDS011;3557;48.880;8.328;2023-09-19T01:10:15;2.20;;;1.13;;
7031;SDS011;3557;48.880;8.328;2023-09-19T01:12:47;1.50;;;0.98;;
7031;SDS011;3557;48.880;8.328;2023-09-19T01:15:38;3.85;;;1.83;;
7031;SDS011;3557;48.880;8.328;2023-09-19T01:18:20;1.55;;;1.10;;
7031;SDS011;3557;48.880;8.328;2023-09-19T01:21:07;1.73;;;1.30;;
7031;SDS011;3557;48.880;8.328;2023-09-19T01:23:40;2.72;;;1.20;;
7031;SDS011;3557;48.880;8.328;2023-09-19T01:26:56;1.17;;;1.08;;
7031;SDS011;3557;48.880;8.328;2023-09-19T01:29:42;2.50;;;1.10;;
7031;SDS011;3557;48.880;8.328;2023-09-19T01:32:15;1.48;;;1.27;;
7031;SDS011;3557;48.880;8.328;2023-09-19T01:34:47;1.40;;;1.10;;
7031;SDS011;3557;48.880;8.328;2023-09-19T01:37:15;3.40;;;1.20;;
7031;SDS011;3557;48.880;8.328;2023-09-19T01:39:46;1.30;;;1.15;;
7031;SDS011;3557;48.880;8.328;2023-09-19T01:42:18;1.38;;;1.00;;
7031;SDS011;3557;48.880;8.328;2023-09-19T01:44:51;1.25;;;1.10;;
7031;SDS011;3557;48.880;8.328;2023-09-19T01:47:28;1.92;;;1.20;;
7031;SDS011;3557;48.880;8.328;2023-09-19T01:50:04;1.10;;;0.95;;
7031;SDS011;3557;48.880;8.328;2023-09-19T01:52:40;1.20;;;1.10;;
7031;SDS011;3557;48.880;8.328;2023-09-19T01:55:13;3.13;;;1.15;;
7031;SDS011;3557;48.880;8.328;2023-09-19T01:57:46;3.95;;;1.20;;
7031;SDS011;3557;48.880;8.328;2023-09-19T02:00:18;2.33;;;1.20;;
7031;SDS011;3557;48.880;8.328;2023-09-19T02:02:50;1.73;;;1.08;;
7031;SDS011;3557;48.880;8.328;2023-09-19T02:05:22;1.30;;;1.20;;
7031;SDS011;3557;48.880;8.328;2023-09-19T02:07:50;1.60;;;1.20;;
7031;SDS011;3557;48.880;8.328;2023-09-19T02:10:18;1.23;;;1.10;;
7031;SDS011;3557;48.880;8.328;2023-09-19T02:12:45;1.25;;;1.10;;
7031;SDS011;3557;48.880;8.328;2023-09-19T02:15:13;2.83;;;1.25;;
7031;SDS011;3557;48.880;8.328;2023-09-19T02:17:41;3.00;;;1.20;;
7031;SDS011;3557;48.880;8.328;2023-09-19T02:20:11;3.33;;;1.20;;
7031;SDS011;3557;48.880;8.328;2023-09-19T02:22:39;3.42;;;1.30;;
7031;SDS011;3557;48.880;8.328;2023-09-19T02:25:07;1.98;;;1.30;;
7031;SDS011;3557;48.880;8.328;2023-09-19T02:27:35;1.35;;;1.20;;
7031;SDS011;3557;48.880;8.328;2023-09-19T02:30:03;2.67;;;1.20;;
7031;SDS011;3557;48.880;8.328;2023-09-19T02:32:32;1.95;;;1.15;;
7031;SDS011;3557;48.880;8.328;2023-09-19T02:35:04;2.28;;;1.25;;
7031;SDS011;3557;48.880;8.328;2023-09-19T02:37:37;2.33;;;1.20;;
7031;SDS011;3557;48.880;8.328;2023-09-19T02:40:05;3.45;;;1.30;;
7031;SDS011;3557;48.880;8.328;2023-09-19T02:42:43;1.45;;;1.30;;
7031;SDS011;3557;48.880;8.328;2023-09-19T02:45:14;1.60;;;1.13;;
7031;SDS011;3557;48.880;8.328;2023-09-19T02:47:43;2.58;;;1.25;;
7031;SDS011;3557;48.880;8.328;2023-09-19T02:50:11;2.28;;;1.27;;
7031;SDS011;3557;48.880;8.328;2023-09-19T02:52:42;4.32;;;1.80;;
7031;SDS011;3557;48.880;8.328;2023-09-19T02:55:12;7.10;;;1.35;;
7031;SDS011;3557;48.880;8.328;2023-09-19T02:57:45;2.03;;;1.40;;
7031;SDS011;3557;48.880;8.328;2023-09-19T03:00:13;4.90;;;1.40;;
7031;SDS011;3557;48.880;8.328;2023-09-19T03:02:41;1.55;;;1.30;;
7031;SDS011;3557;48.880;8.328;2023-09-19T03:05:11;1.73;;;1.30;;
7031;SDS011;3557;48.880;8.328;2023-09-19T03:07:39;6.30;;;1.60;;
7031;SDS011;3557;48.880;8.328;2023-09-19T03:10:11;1.85;;;1.40;;
7031;SDS011;3557;48.880;8.328;2023-09-19T03:12:39;1.88;;;1.25;;
7031;SDS011;3557;48.880;8.328;2023-09-19T03:15:07;3.35;;;1.35;;
7031;SDS011;3557;48.880;8.328;2023-09-19T03:17:35;2.72;;;1.50;;
7031;SDS011;3557;48.880;8.328;2023-09-19T03:20:04;3.42;;;1.42;;
7031;SDS011;3557;48.880;8.328;2023-09-19T03:22:33;3.50;;;1.45;;
7031;SDS011;3557;48.880;8.328;2023-09-19T03:25:02;3.50;;;1.52;;
7031;SDS011;3557;48.880;8.328;2023-09-19T03:27:33;2.92;;;1.92;;
7031;SDS011;3557;48.880;8.328;2023-09-19T03:30:03;2.40;;;1.48;;
7031;SDS011;3557;48.880;8.328;2023-09-19T03:32:33;2.65;;;1.60;;
7031;SDS011;3557;48.880;8.328;2023-09-19T03:35:01;3.08;;;1.48;;
7031;SDS011;3557;48.880;8.328;2023-09-19T03:37:31;3.00;;;1.58;;
7031;SDS011;3557;48.880;8.328;2023-09-19T03:39:58;1.52;;;1.20;;
7031;SDS011;3557;48.880;8.328;2023-09-19T03:42:32;2.35;;;1.50;;
7031;SDS011;3557;48.880;8.328;2023-09-19T03:45:01;3.53;;;1.52;;
7031;SDS011;3557;48.880;8.328;2023-09-19T03:47:30;5.30;;;1.90;;
7031;SDS011;3557;48.880;8.328;2023-09-19T03:50:00;10.00;;;1.70;;
7031;SDS011;3557;48.880;8.328;2023-09-19T03:52:27;3.72;;;1.60;;
7031;SDS011;3557;48.880;8.328;2023-09-19T03:54:55;2.13;;;1.48;;
7031;SDS011;3557;48.880;8.328;2023-09-19T03:57:22;5.28;;;1.50;;
7031;SDS011;3557;48.880;8.328;2023-09-19T03:59:51;3.83;;;1.65;;
7031;SDS011;3557;48.880;8.328;2023-09-19T04:02:19;2.40;;;1.52;;
7031;SDS011;3557;48.880;8.328;2023-09-19T04:04:49;3.60;;;1.77;;
7031;SDS011;3557;48.880;8.328;2023-09-19T04:07:17;3.67;;;1.90;;
7031;SDS011;3557;48.880;8.328;2023-09-19T04:09:54;3.92;;;1.77;;
7031;SDS011;3557;48.880;8.328;2023-09-19T04:12:21;2.92;;;1.83;;
7031;SDS011;3557;48.880;8.328;2023-09-19T04:14:49;3.38;;;1.77;;
7031;SDS011;3557;48.880;8.328;2023-09-19T04:17:17;2.92;;;1.80;;
7031;SDS011;3557;48.880;8.328;2023-09-19T04:19:45;3.47;;;1.58;;
7031;SDS011;3557;48.880;8.328;2023-09-19T04:22:13;2.95;;;1.60;;
7031;SDS011;3557;48.880;8.328;2023-09-19T04:24:40;2.58;;;1.65;;
7031;SDS011;3557;48.880;8.328;2023-09-19T04:27:08;3.30;;;1.58;;
7031;SDS011;3557;48.880;8.328;2023-09-19T04:29:37;3.90;;;1.55;;
7031;SDS011;3557;48.880;8.328;2023-09-19T04:32:06;3.55;;;1.80;;
7031;SDS011;3557;48.880;8.328;2023-09-19T04:34:34;3.85;;;1.70;;
7031;SDS011;3557;48.880;8.328;2023-09-19T04:37:03;2.33;;;1.50;;
7031;SDS011;3557;48.880;8.328;2023-09-19T04:39:31;2.22;;;1.60;;
7031;SDS011;3557;48.880;8.328;2023-09-19T04:41:59;4.38;;;2.00;;
7031;SDS011;3557;48.880;8.328;2023-09-19T04:44:26;2.80;;;1.80;;
7031;SDS011;3557;48.880;8.328;2023-09-19T04:46:54;2.70;;;1.70;;
7031;SDS011;3557;48.880;8.328;2023-09-19T04:49:23;4.47;;;2.03;;
7031;SDS011;3557;48.880;8.328;2023-09-19T04:51:50;4.07;;;2.08;;
7031;SDS011;3557;48.880;8.328;2023-09-19T04:54:18;3.95;;;1.90;;
7031;SDS011;3557;48.880;8.328;2023-09-19T04:56:45;2.13;;;1.75;;
7031;SDS011;3557;48.880;8.328;2023-09-19T04:59:12;6.07;;;2.00;;
7031;SDS011;3557;48.880;8.328;2023-09-19T05:01:41;3.83;;;2.00;;
7031;SDS011;3557;48.880;8.328;2023-09-19T05:04:08;5.07;;;2.17;;
7031;SDS011;3557;48.880;8.328;2023-09-19T05:06:37;5.03;;;2.13;;
7031;SDS011;3557;48.880;8.328;2023-09-19T05:09:04;4.15;;;2.28;;
7031;SDS011;3557;48.880;8.328;2023-09-19T05:11:31;3.03;;;2.20;;
7031;SDS011;3557;48.880;8.328;2023-09-19T05:13:59;2.50;;;1.75;;
7031;SDS011;3557;48.880;8.328;2023-09-19T05:16:29;3.65;;;2.10;;
7031;SDS011;3557;48.880;8.328;2023-09-19T05:18:57;2.50;;;2.00;;
7031;SDS011;3557;48.880;8.328;2023-09-19T05:21:25;4.40;;;2.00;;
7031;SDS011;3557;48.880;8.328;2023-09-19T05:23:55;4.07;;;2.10;;
7031;SDS011;3557;48.880;8.328;2023-09-19T05:26:22;4.55;;;1.90;;
7031;SDS011;3557;48.880;8.328;2023-09-19T05:28:50;3.95;;;1.67;;
7031;SDS011;3557;48.880;8.328;2023-09-19T05:31:18;3.67;;;2.08;;
7031;SDS011;3557;48.880;8.328;2023-09-19T05:33:45;5.03;;;2.10;;
7031;SDS011;3557;48.880;8.328;2023-09-19T05:36:13;4.25;;;2.10;;
7031;SDS011;3557;48.880;8.328;2023-09-19T05:38:42;3.75;;;1.90;;
7031;SDS011;3557;48.880;8.328;2023-09-19T05:41:11;2.47;;;1.90;;
7031;SDS011;3557;48.880;8.328;2023-09-19T05:43:39;5.15;;;2.30;;
7031;SDS011;3557;48.880;8.328;2023-09-19T05:46:06;2.97;;;2.00;;
7031;SDS011;3557;48.880;8.328;2023-09-19T05:48:34;2.90;;;1.92;;
7031;SDS011;3557;48.880;8.328;2023-09-19T05:51:01;5.50;;;2.50;;
7031;SDS011;3557;48.880;8.328;2023-09-19T05:53:28;3.30;;;1.98;;
7031;SDS011;3557;48.880;8.328;2023-09-19T05:55:56;3.40;;;2.10;;
7031;SDS011;3557;48.880;8.328;2023-09-19T05:58:27;3.40;;;1.90;;
7031;SDS011;3557;48.880;8.328;2023-09-19T06:00:54;3.97;;;2.00;;
7031;SDS011;3557;48.880;8.328;2023-09-19T06:03:22;3.45;;;1.80;;
7031;SDS011;3557;48.880;8.328;2023-09-19T06:05:50;7.18;;;2.38;;
7031;SDS011;3557;48.880;8.328;2023-09-19T06:08:18;8.00;;;2.10;;
7031;SDS011;3557;48.880;8.328;2023-09-19T06:10:46;7.32;;;2.00;;
7031;SDS011;3557;48.880;8.328;2023-09-19T06:13:14;5.65;;;2.00;;
7031;SDS011;3557;48.880;8.328;2023-09-19T06:15:42;4.30;;;1.90;;
7031;SDS011;3557;48.880;8.328;2023-09-19T06:18:11;7.40;;;2.13;;
7031;SDS011;3557;48.880;8.328;2023-09-19T06:20:44;5.10;;;2.20;;
7031;SDS011;3557;48.880;8.328;2023-09-19T06:23:12;4.88;;;2.15;;
7031;SDS011;3557;48.880;8.328;2023-09-19T06:25:40;5.25;;;2.53;;
7031;SDS011;3557;48.880;8.328;2023-09-19T06:28:08;3.97;;;1.90;;
7031;SDS011;3557;48.880;8.328;2023-09-19T06:30:37;5.88;;;2.10;;
7031;SDS011;3557;48.880;8.328;2023-09-19T06:33:08;3.88;;;2.00;;
7031;SDS011;3557;48.880;8.328;2023-09-19T06:35:36;4.03;;;1.90;;
7031;SDS011;3557;48.880;8.328;2023-09-19T06:38:04;4.53;;;2.10;;
7031;SDS011;3557;48.880;8.328;2023-09-19T06:40:33;4.43;;;2.13;;
7031;SDS011;3557;48.880;8.328;2023-09-19T06:43:01;3.97;;;2.00;;
7031;SDS011;3557;48.880;8.328;2023-09-19T06:45:29;7.05;;;2.17;;
7031;SDS011;3557;48.880;8.328;2023-09-19T06:47:57;4.00;;;1.90;;
7031;SDS011;3557;48.880;8.328;2023-09-19T06:50:27;4.95;;;2.10;;
7031;SDS011;3557;48.880;8.328;2023-09-19T06:52:56;3.15;;;1.90;;
7031;SDS011;3557;48.880;8.328;2023-09-19T06:55:25;4.07;;;2.00;;
7031;SDS011;3557;48.880;8.328;2023-09-19T06:57:56;1.90;;;1.70;;
7031;SDS011;3557;48.880;8.328;2023-09-19T07:00:24;4.53;;;2.05;;
7031;SDS011;3557;48.880;8.328;2023-09-19T07:02:56;4.82;;;1.88;;
7031;SDS011;3557;48.880;8.328;2023-09-19T07:05:27;6.35;;;1.88;;
7031;SDS011;3557;48.880;8.328;2023-09-19T07:07:56;4.80;;;2.15;;
7031;SDS011;3557;48.880;8.328;2023-09-19T07:10:24;3.78;;;1.88;;
7031;SDS011;3557;48.880;8.328;2023-09-19T07:12:56;5.28;;;2.00;;
7031;SDS011;3557;48.880;8.328;2023-09-19T07:15:24;6.45;;;2.20;;
7031;SDS011;3557;48.880;8.328;2023-09-19T07:17:51;2.97;;;2.17;;
7031;SDS011;3557;48.880;8.328;2023-09-19T07:20:19;6.30;;;2.40;;
7031;SDS011;3557;48.880;8.328;2023-09-19T07:22:48;6.25;;;1.95;;
7031;SDS011;3557;48.880;8.328;2023-09-19T07:25:16;4.32;;;2.08;;
7031;SDS011;3557;48.880;8.328;2023-09-19T07:27:43;5.40;;;1.90;;
7031;SDS011;3557;48.880;8.328;2023-09-19T07:30:11;4.85;;;1.83;;
7031;SDS011;3557;48.880;8.328;2023-09-19T07:32:40;6.25;;;1.70;;
7031;SDS011;3557;48.880;8.328;2023-09-19T07:35:07;5.25;;;2.00;;
7031;SDS011;3557;48.880;8.328;2023-09-19T07:37:35;6.68;;;1.70;;
7031;SDS011;3557;48.880;8.328;2023-09-19T07:40:04;3.55;;;1.70;;
7031;SDS011;3557;48.880;8.328;2023-09-19T07:42:34;3.83;;;1.70;;
7031;SDS011;3557;48.880;8.328;2023-09-19T07:45:06;3.22;;;1.60;;
7031;SDS011;3557;48.880;8.328;2023-09-19T07:47:34;3.65;;;1.38;;
7031;SDS011;3557;48.880;8.328;2023-09-19T07:50:02;3.78;;;1.30;;
7031;SDS011;3557;48.880;8.328;2023-09-19T07:52:32;2.05;;;1.30;;
7031;SDS011;3557;48.880;8.328;2023-09-19T07:55:00;4.32;;;1.67;;
7031;SDS011;3557;48.880;8.328;2023-09-19T07:57:33;4.93;;;1.77;;
7031;SDS011;3557;48.880;8.328;2023-09-19T08:00:00;1.58;;;1.30;;
7031;SDS011;3557;48.880;8.328;2023-09-19T08:02:36;4.15;;;1.60;;
7031;SDS011;3557;48.880;8.328;2023-09-19T08:05:05;2.35;;;1.33;;
7031;SDS011;3557;48.880;8.328;2023-09-19T08:07:35;1.85;;;1.30;;
7031;SDS011;3557;48.880;8.328;2023-09-19T08:10:02;4.47;;;1.50;;
7031;SDS011;3557;48.880;8.328;2023-09-19T08:12:34;5.00;;;1.55;;
7031;SDS011;3557;48.880;8.328;2023-09-19T08:15:01;2.65;;;1.52;;
7031;SDS011;3557;48.880;8.328;2023-09-19T08:17:33;4.63;;;1.50;;
7031;SDS011;3557;48.880;8.328;2023-09-19T08:20:01;4.63;;;1.60;;
7031;SDS011;3557;48.880;8.328;2023-09-19T08:22:30;4.03;;;1.63;;
7031;SDS011;3557;48.880;8.328;2023-09-19T08:24:58;3.40;;;1.70;;
7031;SDS011;3557;48.880;8.328;2023-09-19T08:27:29;1.92;;;1.50;;
7031;SDS011;3557;48.880;8.328;2023-09-19T08:29:58;2.70;;;1.35;;
7031;SDS011;3557;48.880;8.328;2023-09-19T08:32:26;3.65;;;1.50;;
7031;SDS011;3557;48.880;8.328;2023-09-19T08:34:54;3.65;;;1.45;;
7031;SDS011;3557;48.880;8.328;2023-09-19T08:37:21;3.42;;;1.40;;
7031;SDS011;3557;48.880;8.328;2023-09-19T08:39:49;2.05;;;1.60;;
7031;SDS011;3557;48.880;8.328;2023-09-19T08:42:16;2.97;;;1.40;;
7031;SDS011;3557;48.880;8.328;2023-09-19T08:44:46;2.78;;;1.35;;
7031;SDS011;3557;48.880;8.328;2023-09-19T08:47:15;2.10;;;1.50;;
7031;SDS011;3557;48.880;8.328;2023-09-19T08:49:46;3.30;;;1.50;;
7031;SDS011;3557;48.880;8.328;2023-09-19T08:52:20;1.52;;;1.30;;
7031;SDS011;3557;48.880;8.328;2023-09-19T08:54:51;2.78;;;1.50;;
7031;SDS011;3557;48.880;8.328;2023-09-19T08:57:19;2.60;;;1.40;;
7031;SDS011;3557;48.880;8.328;2023-09-19T08:59:47;3.15;;;1.50;;
7031;SDS011;3557;48.880;8.328;2023-09-19T09:02:17;3.28;;;1.65;;
7031;SDS011;3557;48.880;8.328;2023-09-19T09:04:45;5.40;;;1.45;;
7031;SDS011;3557;48.880;8.328;2023-09-19T09:07:13;4.00;;;1.60;;
7031;SDS011;3557;48.880;8.328;2023-09-19T09:09:42;3.95;;;1.40;;
7031;SDS011;3557;48.880;8.328;2023-09-19T09:12:10;3.70;;;1.42;;
7031;SDS011;3557;48.880;8.328;2023-09-19T09:14:39;1.40;;;1.30;;
7031;SDS011;3557;48.880;8.328;2023-09-19T09:17:07;5.97;;;1.58;;
7031;SDS011;3557;48.880;8.328;2023-09-19T09:19:36;2.83;;;1.60;;
7031;SDS011;3557;48.880;8.328;2023-09-19T09:22:07;2.97;;;1.50;;
7031;SDS011;3557;48.880;8.328;2023-09-19T09:24:35;2.83;;;1.60;;
7031;SDS011;3557;48.880;8.328;2023-09-19T09:27:05;3.05;;;1.80;;
7031;SDS011;3557;48.880;8.328;2023-09-19T09:29:42;3.47;;;1.52;;
7031;SDS011;3557;48.880;8.328;2023-09-19T09:32:19;3.38;;;1.70;;
7031;SDS011;3557;48.880;8.328;2023-09-19T09:34:50;2.75;;;1.40;;
7031;SDS011;3557;48.880;8.328;2023-09-19T09:37:19;2.58;;;1.58;;
7031;SDS011;3557;48.880;8.328;2023-09-19T09:39:51;3.33;;;1.60;;
7031;SDS011;3557;48.880;8.328;2023-09-19T09:42:30;3.10;;;1.33;;
7031;SDS011;3557;48.880;8.328;2023-09-19T09:45:13;4.13;;;1.45;;
7031;SDS011;3557;48.880;8.328;2023-09-19T09:47:46;1.70;;;1.38;;
7031;SDS011;3557;48.880;8.328;2023-09-19T09:50:25;2.03;;;1.40;;
7031;SDS011;3557;48.880;8.328;2023-09-19T09:53:21;2.00;;;1.48;;
7031;SDS011;3557;48.880;8.328;2023-09-19T09:55:59;1.75;;;1.58;;
7031;SDS011;3557;48.880;8.328;2023-09-19T09:58:31;2.92;;;1.63;;
7031;SDS011;3557;48.880;8.328;2023-09-19T10:01:00;2.72;;;1.60;;
7031;SDS011;3557;48.880;8.328;2023-09-19T10:03:34;2.50;;;1.50;;
7031;SDS011;3557;48.880;8.328;2023-09-19T10:06:09;1.83;;;1.38;;
7031;SDS011;3557;48.880;8.328;2023-09-19T10:08:58;3.60;;;1.58;;
7031;SDS011;3557;48.880;8.328;2023-09-19T10:11:37;2.80;;;1.50;;
7031;SDS011;3557;48.880;8.328;2023-09-19T10:14:10;2.85;;;1.40;;
7031;SDS011;3557;48.880;8.328;2023-09-19T10:16:40;5.03;;;2.22;;
7031;SDS011;3557;48.880;8.328;2023-09-19T10:19:13;4.05;;;1.55;;
7031;SDS011;3557;48.880;8.328;2023-09-19T10:21:49;3.75;;;1.55;;
7031;SDS011;3557;48.880;8.328;2023-09-19T10:24:17;4.97;;;1.80;;
7031;SDS011;3557;48.880;8.328;2023-09-19T10:26:45;2.45;;;1.60;;
7031;SDS011;3557;48.880;8.328;2023-09-19T10:29:16;6.15;;;1.75;;
7031;SDS011;3557;48.880;8.328;2023-09-19T10:31:45;2.65;;;1.60;;
7031;SDS011;3557;48.880;8.328;2023-09-19T10:34:15;2.30;;;1.35;;
7031;SDS011;3557;48.880;8.328;2023-09-19T10:36:44;7.28;;;1.85;;
7031;SDS011;3557;48.880;8.328;2023-09-19T10:39:15;2.40;;;1.60;;
7031;SDS011;3557;48.880;8.328;2023-09-19T10:41:47;2.30;;;1.23;;
7031;SDS011;3557;48.880;8.328;2023-09-19T10:44:21;4.82;;;1.70;;
7031;SDS011;3557;48.880;8.328;2023-09-19T10:46:50;2.40;;;1.65;;
7031;SDS011;3557;48.880;8.328;2023-09-19T10:49:19;3.17;;;1.48;;
7031;SDS011;3557;48.880;8.328;2023-09-19T10:51:47;2.20;;;1.40;;
7031;SDS011;3557;48.880;8.328;2023-09-19T10:54:21;2.67;;;1.42;;
7031;SDS011;3557;48.880;8.328;2023-09-19T10:56:51;2.83;;;1.40;;
7031;SDS011;3557;48.880;8.328;2023-09-19T10:59:23;4.70;;;1.40;;
7031;SDS011;3557;48.880;8.328;2023-09-19T11:01:57;4.47;;;1.80;;
7031;SDS011;3557;48.880;8.328;2023-09-19T11:04:26;3.55;;;1.80;;
7031;SDS011;3557;48.880;8.328;2023-09-19T11:07:02;3.13;;;1.50;;
7031;SDS011;3557;48.880;8.328;2023-09-19T11:12:47;4.68;;;1.70;;
7031;SDS011;3557;48.880;8.328;2023-09-19T11:24:30;3.15;;;1.42;;
7031;SDS011;3557;48.880;8.328;2023-09-19T11:27:12;3.05;;;1.52;;
7031;SDS011;3557;48.880;8.328;2023-09-19T11:29:43;2.80;;;1.40;;
7031;SDS011;3557;48.880;8.328;2023-09-19T11:32:10;2.17;;;1.45;;
7031;SDS011;3557;48.880;8.328;2023-09-19T11:34:44;4.70;;;1.52;;
7031;SDS011;3557;48.880;8.328;2023-09-19T11:40:44;2.38;;;1.50;;
7031;SDS011;3557;48.880;8.328;2023-09-19T11:43:31;3.08;;;1.48;;
7031;SDS011;3557;48.880;8.328;2023-09-19T11:46:08;1.92;;;1.50;;
7031;SDS011;3557;48.880;8.328;2023-09-19T11:48:38;3.13;;;1.52;;
7031;SDS011;3557;48.880;8.328;2023-09-19T11:51:16;3.03;;;1.55;;
7031;SDS011;3557;48.880;8.328;2023-09-19T11:53:47;4.15;;;1.45;;
7031;SDS011;3557;48.880;8.328;2023-09-19T11:56:16;2.08;;;1.33;;
7031;SDS011;3557;48.880;8.328;2023-09-19T11:58:47;3.92;;;1.60;;
7031;SDS011;3557;48.880;8.328;2023-09-19T12:01:21;3.38;;;1.60;;
7031;SDS011;3557;48.880;8.328;2023-09-19T12:03:54;3.03;;;1.48;;
7031;SDS011;3557;48.880;8.328;2023-09-19T12:06:23;3.30;;;1.95;;
7031;SDS011;3557;48.880;8.328;2023-09-19T12:08:52;3.55;;;1.60;;
7031;SDS011;3557;48.880;8.328;2023-09-19T12:11:21;1.60;;;1.35;;
7031;SDS011;3557;48.880;8.328;2023-09-19T12:13:50;3.75;;;1.55;;
7031;SDS011;3557;48.880;8.328;2023-09-19T12:16:18;3.42;;;1.40;;
7031;SDS011;3557;48.880;8.328;2023-09-19T12:18:50;2.92;;;1.40;;
7031;SDS011;3557;48.880;8.328;2023-09-19T12:21:22;4.28;;;1.60;;
7031;SDS011;3557;48.880;8.328;2023-09-19T12:23:57;2.78;;;1.50;;
7031;SDS011;3557;48.880;8.328;2023-09-19T12:26:30;1.80;;;1.33;;
7031;SDS011;3557;48.880;8.328;2023-09-19T12:29:06;2.38;;;1.77;;
7031;SDS011;3557;48.880;8.328;2023-09-19T12:31:46;2.35;;;1.40;;
7031;SDS011;3557;48.880;8.328;2023-09-19T12:34:20;2.90;;;1.40;;
7031;SDS011;3557;48.880;8.328;2023-09-19T12:37:08;1.92;;;1.40;;
7031;SDS011;3557;48.880;8.328;2023-09-19T12:39:46;1.88;;;1.40;;
7031;SDS011;3557;48.880;8.328;2023-09-19T12:42:16;3.05;;;1.40;;
7031;SDS011;3557;48.880;8.328;2023-09-19T12:44:47;2.67;;;1.60;;
7031;SDS011;3557;48.880;8.328;2023-09-19T12:47:20;3.17;;;1.50;;
7031;SDS011;3557;48.880;8.328;2023-09-19T12:50:05;3.40;;;1.60;;
7031;SDS011;3557;48.880;8.328;2023-09-19T12:52:38;1.50;;;1.40;;
7031;SDS011;3557;48.880;8.328;2023-09-19T12:55:07;1.30;;;1.20;;
7031;SDS011;3557;48.880;8.328;2023-09-19T12:57:42;2.28;;;1.50;;
7031;SDS011;3557;48.880;8.328;2023-09-19T13:00:11;3.15;;;1.42;;
7031;SDS011;3557;48.880;8.328;2023-09-19T13:05:47;1.73;;;1.35;;
7031;SDS011;3557;48.880;8.328;2023-09-19T13:08:17;3.00;;;1.35;;
7031;SDS011;3557;48.880;8.328;2023-09-19T13:13:35;2.22;;;1.55;;
7031;SDS011;3557;48.880;8.328;2023-09-19T13:16:05;3.03;;;1.58;;
7031;SDS011;3557;48.880;8.328;2023-09-19T13:18:43;2.63;;;1.42;;
7031;SDS011;3557;48.880;8.328;2023-09-19T13:21:16;2.00;;;1.40;;
7031;SDS011;3557;48.880;8.328;2023-09-19T13:23:54;1.60;;;1.40;;
7031;SDS011;3557;48.880;8.328;2023-09-19T13:26:25;4.47;;;1.63;;
7031;SDS011;3557;48.880;8.328;2023-09-19T13:28:53;1.48;;;1.38;;
7031;SDS011;3557;48.880;8.328;2023-09-19T13:31:22;3.33;;;1.40;;
7031;SDS011;3557;48.880;8.328;2023-09-19T13:33:50;2.45;;;1.50;;
7031;SDS011;3557;48.880;8.328;2023-09-19T13:36:17;2.85;;;1.40;;
7031;SDS011;3557;48.880;8.328;2023-09-19T13:38:45;2.33;;;1.70;;
7031;SDS011;3557;48.880;8.328;2023-09-19T13:41:14;4.85;;;1.50;;
7031;SDS011;3557;48.880;8.328;2023-09-19T13:43:42;1.38;;;1.27;;
7031;SDS011;3557;48.880;8.328;2023-09-19T13:46:14;1.73;;;1.40;;
7031;SDS011;3557;48.880;8.328;2023-09-19T13:48:44;1.77;;;1.20;;
7031;SDS011;3557;48.880;8.328;2023-09-19T13:51:11;1.30;;;1.20;;
7031;SDS011;3557;48.880;8.328;2023-09-19T13:53:40;1.45;;;1.25;;
7031;SDS011;3557;48.880;8.328;2023-09-19T13:56:07;2.83;;;1.25;;
7031;SDS011;3557;48.880;8.328;2023-09-19T13:58:34;4.25;;;1.40;;
7031;SDS011;3557;48.880;8.328;2023-09-19T14:01:02;1.75;;;1.35;;
7031;SDS011;3557;48.880;8.328;2023-09-19T14:03:30;3.08;;;1.20;;
7031;SDS011;3557;48.880;8.328;2023-09-19T14:05:58;1.23;;;1.10;;
7031;SDS011;3557;48.880;8.328;2023-09-19T14:08:26;3.00;;;1.70;;
7031;SDS011;3557;48.880;8.328;2023-09-19T14:10:54;1.77;;;1.20;;
7031;SDS011;3557;48.880;8.328;2023-09-19T14:13:21;1.88;;;1.23;;
7031;SDS011;3557;48.880;8.328;2023-09-19T14:15:50;2.33;;;1.50;;
7031;SDS011;3557;48.880;8.328;2023-09-19T14:18:19;2.90;;;1.30;;
7031;SDS011;3557;48.880;8.328;2023-09-19T14:20:47;2.40;;;1.20;;
7031;SDS011;3557;48.880;8.328;2023-09-19T14:23:19;1.80;;;1.25;;
7031;SDS011;3557;48.880;8.328;2023-09-19T14:25:48;1.30;;;1.20;;
7031;SDS011;3557;48.880;8.328;2023-09-19T14:28:17;3.05;;;1.30;;
7031;SDS011;3557;48.880;8.328;2023-09-19T14:30:44;2.63;;;1.30;;
7031;SDS011;3557;48.880;8.328;2023-09-19T14:33:14;1.73;;;1.30;;
7031;SDS011;3557;48.880;8.328;2023-09-19T14:35:41;1.42;;;1.25;;
7031;SDS011;3557;48.880;8.328;2023-09-19T14:38:09;2.55;;;1.27;;
7031;SDS011;3557;48.880;8.328;2023-09-19T14:40:37;1.55;;;1.38;;
7031;SDS011;3557;48.880;8.328;2023-09-19T14:43:05;2.05;;;1.35;;
7031;SDS011;3557;48.880;8.328;2023-09-19T14:45:35;2.13;;;1.35;;
7031;SDS011;3557;48.880;8.328;2023-09-19T14:48:03;1.55;;;1.20;;
7031;SDS011;3557;48.880;8.328;2023-09-19T14:50:32;2.92;;;1.30;;
7031;SDS011;3557;48.880;8.328;2023-09-19T14:52:59;1.60;;;1.20;;
7031;SDS011;3557;48.880;8.328;2023-09-19T14:55:28;2.30;;;1.20;;
7031;SDS011;3557;48.880;8.328;2023-09-19T14:58:00;2.75;;;1.45;;
7031;SDS011;3557;48.880;8.328;2023-09-19T15:00:28;1.90;;;1.15;;
7031;SDS011;3557;48.880;8.328;2023-09-19T15:02:55;2.30;;;1.30;;
7031;SDS011;3557;48.880;8.328;2023-09-19T15:05:22;2.45;;;1.50;;
7031;SDS011;3557;48.880;8.328;2023-09-19T15:07:50;2.00;;;1.35;;
7031;SDS011;3557;48.880;8.328;2023-09-19T15:10:17;2.25;;;1.33;;
7031;SDS011;3557;48.880;8.328;2023-09-19T15:12:45;2.30;;;1.40;;
7031;SDS011;3557;48.880;8.328;2023-09-19T15:15:13;1.75;;;1.20;;
7031;SDS011;3557;48.880;8.328;2023-09-19T15:17:41;2.72;;;1.17;;
7031;SDS011;3557;48.880;8.328;2023-09-19T15:20:08;1.05;;;1.00;;
7031;SDS011;3557;48.880;8.328;2023-09-19T15:22:39;3.05;;;1.30;;
7031;SDS011;3557;48.880;8.328;2023-09-19T15:25:07;2.22;;;1.30;;
7031;SDS011;3557;48.880;8.328;2023-09-19T15:27:35;1.65;;;1.05;;
7031;SDS011;3557;48.880;8.328;2023-09-19T15:30:03;1.52;;;1.20;;
7031;SDS011;3557;48.880;8.328;2023-09-19T15:32:33;1.30;;;1.20;;
7031;SDS011;3557;48.880;8.328;2023-09-19T15:35:00;2.53;;;1.20;;
7031;SDS011;3557;48.880;8.328;2023-09-19T15:37:28;1.75;;;1.40;;
7031;SDS011;3557;48.880;8.328;2023-09-19T15:39:55;3.13;;;1.10;;
7031;SDS011;3557;48.880;8.328;2023-09-19T15:42:23;1.33;;;1.23;;
7031;SDS011;3557;48.880;8.328;2023-09-19T15:44:50;1.48;;;1.10;;
7031;SDS011;3557;48.880;8.328;2023-09-19T15:47:17;3.85;;;1.30;;
7031;SDS011;3557;48.880;8.328;2023-09-19T15:49:47;1.88;;;1.15;;
7031;SDS011;3557;48.880;8.328;2023-09-19T15:52:16;2.60;;;1.33;;
7031;SDS011;3557;48.880;8.328;2023-09-19T15:54:44;1.95;;;1.20;;